• 1
  • 2
  • 1

 

 

WebCam

  
Kamera Halle
Kamera Vorfeld
Wetter EDDS

METAR

EDDS 260820Z 32003KT 250V350 9999 BKN012 BKN042 04/01 Q1029 TEMPO SCT012 =
EDDS 260500Z 2606/2706 32007KT 9999 BKN030 TEMPO 2606/2609 BKN010 BECMG 2620/2624 VRB03KT PROB30 TEMPO 2702/2706 BKN014


TAF

EDDS 260500Z 2606/2706 32007KT 9999 BKN030 TEMPO 2606/2609 BKN010 BECMG 2620/2624 VRB03KT PROB30 TEMPO 2702/2706 BKN014 =


SR/SS

05:12 / 17:42 UTC
(EDSO 26-03-2019)